Rallye Mare e Machja 2017
Le 10,11, 12 Novembre
1 1 LEANDRI Jean-Mathieu/GORGUILO Anthony Skoda Fabia R 5 40:36,5
2 2 GORDON Jean Pierre/GORDON Fabrice Ford Fiesta R 5 41:31,6 +00:55,1 +00:55,1
3 7 LEFEBVRE Frédéric/DINI Gilbert Mitsubishi Evo 9 FA 8 42:51,2 +02:14,7 +01:19,6
4 8 GALEANI Jean-Joseph/LEONARDI Pierre-Marien Mitsubishi Evo 9 R 4 43:00,6 +02:24,1 +00:09,4
5 26 ANDREUCCI Frédéric/LECA Nicolas Renault Clio 16V FA 6K 43:18,9 +02:42,4 +00:18,3
6 4 PISANO Mickaël/BERTHOLLE Olivier Ford Fiesta R 5 43:23,5 +02:47,0 +00:04,6
7 49 MUSELLI Jean-Philippe/MASSON Elodie Renault Clio FN 3 43:29,9 +02:53,4 +00:06,4
8 40 ALERINI Paul/BARICHELLA Tony Peugeot 208 Vti R 2 43:38,9 +03:02,4 +00:09,0
9 41 FIORI Jean-Antoine/TAVERA Julien Citroën C2 R2 R 2 43:43,6 +03:07,1 +00:04,7
10 28 VANNUCCI Louis/DE BARTOLO Fabrice Citroën Saxo S1600 FA 6K 44:18,8 +03:42,3 +00:35,2
11 43 SERRA Dominique/BURESI Francois-Xavier Peugeot 208 Vti R 2 44:24,9 +03:48,4 +00:06,1
12 50 CHASSAING Philippe/BACCHIOLELLI Jean-Baptiste Renault Clio Ragnotti FN 3 44:44,3 +04:07,8 +00:19,4
13 51 DE LA FOATA Paul/TERRONI Cédric Renault Clio Ragnotti N 3 44:56,3 +04:19,8 +00:12,0
14 29 GIORGI Fabrice/BEILL Raphaël Peugeot 106 Maxi FA 6K 45:20,9 +04:44,4 +00:24,6
15 14 GAMBARELLI Anghjulu/CASANOVA Miguel Renault Clio F2 14 45:48,4 +05:11,9 +00:27,5
16 57 RASIGNI Romain/JOVER Denis Renault Clio Ragnotti N 3 46:27,3 +05:50,8 +00:38,9
17 5 RENUCCI Kathia/PAOLINI Angélique Peugeot 207 S2000 A 7S 46:30,9 +05:54,4 +00:03,6
18 58 RENUCCI Antoine/SIMEONI Jean-Marc Renault Clio Ragnotti FN 3 46:37,6 +06:01,1 +00:06,7
19 46 BURESI Adrien/BURESI Romain Peugeot 208 R2 R 2 46:38,9 +06:02,4 +00:01,3
20 34 MARIANI Anthony/HELM Vivien Peugeot 206 Xs FA 6K 46:57,7 +06:21,2 +00:18,8
21 10 ROSSI Yannick/VOLPEI Baptiste Mitsubishi Lancer Evo 9 FN 4 46:58,2 +06:21,7 +00:00,5
22 3 MARTINI Jean-Philippe/FIESCHI Ambroise Peugeot 208 T16 R 5 47:18,0 +06:41,5 +00:19,8
23 65 LORENZONI Philippe/CATELLAGGI Julie Honda Civic Eg6 FN 2 47:19,0 +06:42,5 +00:01,0
24 59 MARCHETTI Michel/MAUREL Virginie Citroën Saxo Vts F2 13 47:19,2 +06:42,7 +00:00,2
25 42 GERONIMI Dominique/GARCIA Dann Citroën C2 Vts R 2 47:20,0 +06:43,5 +00:00,8
26 45 BUCCI Pierre-Laurent/CAVIGLIOLI Caroline Citroën C2 R2 Max R 2 47:21,2 +06:44,7 +00:01,2
27 54 DE MEYER Jean-Michel/FRATTI Eric Renault Clio Ragnotti N 3 47:22,3 +06:45,8 +00:01,1
28 33 MARCHINI Jean Paul/SIMONETTI Johanna Peugeot 206 Xs A 6K 47:40,7 +07:04,2 +00:18,4
29 64 VENTURI Christian/PIERAZZI Arnaud Peugeot 205 Rallye FA 5 47:41,3 +07:04,8 +00:00,6
30 44 ANTONA Julien/MANZAGGI Nicolas Citroën C2 R2 Max R 2 47:45,3 +07:08,8 +00:04,0
31 32 BROQUET John/STEFANAGGI Antoine Peugeot 106 S16 A 6K 48:03,3 +07:26,8 +00:18,0
32 68 NIVAGGIONI Jean-Toussaint/PONSOT Sébastien Citroën Saxo Vts FN 2 48:24,4 +07:47,9 +00:21,1
33 15 FILMONT Jérôme/VIGNOLI Jean-Francois Peugeot 306 S16 F2 14 48:25,7 +07:49,2 +00:01,3
34 6 GIOVANNANGELI Jean Baptiste/SANTARELLI Coralie BMW M3 FA 8 48:41,8 +08:05,3 +00:16,1
35 66 MAESTRACCI François/CASANOVA Sébastien Peugeot 106 FN 2 49:07,1 +08:30,6 +00:25,3
36 62 SALINI Laura/PERETTI Myriam Citroën Saxo FA 6 49:15,3 +08:38,8 +00:08,2
37 39 VITTORI Marc-Antoine/PORCU Pascal-Andre Citroën C2 A 6K 49:17,9 +08:41,4 +00:02,6
38 22 RENUCCI Jacques-Andre/RENUCCI Daniel Peugeot 205 Gti F2 14 49:29,5 +08:53,0 +00:11,6
39 9 CHIARONI Pascal/BRUNELLI Anne-Laure Renault Clio Sport Max R 3 49:46,4 +09:09,9 +00:16,9
40 61 RENUCCI Antoine/RENUCCI Anthony Peugeot 205 Rallye F2 13 49:55,9 +09:19,4 +00:09,5
41 35 MARTINETTI Jean-Laurent/DELCLAUD Christian Peugeot 206 Xs A 6K 50:00,5 +09:24,0 +00:04,6
42 74 PINELLI Jean-Pierre/CANEGGIANI Dylan Peugeot 205 Rallye F2 12 50:07,4 +09:30,9 +00:06,9
43 23 ROBERT Alexandre/MILIANI Pascal Peugeot 205 F2 14 50:15,7 +09:39,2 +00:08,3
44 37 CASALTA Cyril/FERRACCI Nicolas Peugeot 206 FA 6K 50:31,8 +09:55,3 +00:16,1
45 17 CALISTRI Jean-Claude/CALISTRI Nicolas Renault 5 Gt Turbo F2 14 50:39,3 +10:02,8 +00:07,5
46 72 PAPON Jean-Noel/AMBROSI Céline Citroën Saxo Vts F2 12 50:54,6 +10:18,1 +00:15,3
47 67 CASABIANCA Jacques-Francois/PENNACCHIONI Marcel Peugeot 106 S16 FN 2 51:03,1 +10:26,6 +00:08,5
48 76 NICOLI Gérard/GALTIERI Marie-Flore Citroën Ax Sport FN 1 51:06,2 +10:29,7 +00:03,1
49 38 CADDEO Allan/LOUVEL Jade Peugeot 206 Xs FA 6K 52:38,8 +12:02,3 +01:32,6
50 25 SALVADORI Paul-Joseph/CARRE Jessica Peugeot 205 GTI F2 14 53:00,9 +12:24,4 +00:22,1
51 75 TROMBI Philippe/DELATTRE Judicael Peugeot 106 F2 12 53:04,8 +12:28,3 +00:03,9
52 36 GERONIMI Dominique-Noel/QUILICI Anthony Peugeot 106 S16 FA 6K 53:09,6 +12:33,1 +00:04,8
53 48 PAOLI Benjamin/MOSSA Sebastien Peugeot 208 Vti R 2 53:17,2 +12:40,7 +00:07,6
54 24 ROSSINI Stefanu/ALTANA Ludovic Renault Clio F2 14 53:31,8 +12:55,3 +00:14,6
55 20 MISERAZZI Fabrice/ROS Patrick Peugeot 205 F2 14 56:58,9 +16:22,4 +03:27,1
56 47 GIANNINI Eric/GIANNINI Anthony Peugeot 208 R2 R 2 1:07:00,9 +26:24,4 +10:02,0
Clt Equipage Voiture Gr/Cl Temps Ecart 1er Ecart préc. Catégories
Commentaires: © PatricK Soft  
(Temps forfaitaires=couleur bleue)
Classés:56

Epreuve: Groupe: Catégorie:

 
Retour
Classement après ES4-Masina - Aja 2 (14.200 km)